Time;durP1;ratioP1;P1;durP2;ratioP2;P2;SDS_P1;SDS_P2;PMS_P1;PMS_P2;Temp;Humidity;BMP_temperature;BMP_pressure;BME280_temperature;BME280_humidity;BME280_pressure;Samples;Min_cycle;Max_cycle;Signal;HPM_P1;HPM_P2
2021/07/04 00:00:36;;;;;;;;;;;14.00;90.20;;;;;;5074862;28;20399;-69
2021/07/04 00:03:02;;;;;;;;;;;14.00;90.20;;;;;;5072955;28;19912;-70
2021/07/04 00:05:29;;;;;;;;;;;14.00;90.30;;;;;;5062695;28;20354;-72
2021/07/04 00:07:55;;;;;;;;;;;13.90;90.30;;;;;;5075476;28;19966;-69
2021/07/04 00:10:23;;;;;;;;;;;13.90;90.30;;;;;;5071289;28;19977;-69
2021/07/04 00:12:48;;;;;;;;;;;13.90;90.20;;;;;;5067714;28;19924;-71
2021/07/04 00:15:15;;;;;;;;;;;13.80;90.40;;;;;;5070438;28;19912;-70
2021/07/04 00:17:41;;;;;;;;;;;13.80;90.40;;;;;;5074210;28;20403;-69
2021/07/04 00:20:08;;;;;;;;;;;13.80;91.00;;;;;;5074742;28;20102;-70
2021/07/04 00:22:33;;;;;;;;;;;13.70;90.70;;;;;;5057388;28;20312;-68
2021/07/04 00:24:59;;;;;;;;;;;13.80;91.00;;;;;;5076192;28;20389;-72
2021/07/04 00:27:24;;;;;;;;;;;13.70;91.00;;;;;;5084153;28;19912;-69
2021/07/04 00:29:50;;;;;;;;;;;13.80;91.20;;;;;;5067179;28;20581;-70
2021/07/04 00:32:15;;;;;;;;;;;13.80;91.40;;;;;;5085287;28;20003;-71
2021/07/04 00:34:41;;;;;;;;;;;13.70;90.40;;;;;;5084431;28;19936;-71
2021/07/04 00:37:06;;;;;;;;;;;13.70;90.90;;;;;;5076565;28;19951;-67
2021/07/04 00:39:32;;;;;;;;;;;13.70;91.10;;;;;;5082719;28;20022;-70
2021/07/04 00:41:57;;;;;;;;;;;13.70;91.70;;;;;;5081577;28;19924;-69
2021/07/04 00:44:23;;;;;;;;;;;13.70;91.70;;;;;;5083842;28;19984;-69
2021/07/04 00:46:48;;;;;;;;;;;13.60;91.10;;;;;;5080369;28;20014;-71
2021/07/04 00:49:14;;;;;;;;;;;13.60;91.10;;;;;;5071650;28;19942;-70
2021/07/04 00:51:39;;;;;;;;;;;13.60;91.50;;;;;;5078112;28;20336;-69
2021/07/04 00:54:05;;;;;;;;;;;13.60;91.70;;;;;;5065392;28;19922;-70
2021/07/04 00:56:31;;;;;;;;;;;13.60;91.90;;;;;;5079881;28;19955;-69
2021/07/04 00:58:56;;;;;;;;;;;13.50;91.60;;;;;;5076231;28;19912;-69
2021/07/04 01:01:22;;;;;;;;;;;13.50;91.70;;;;;;5076200;28;19916;-69
2021/07/04 01:03:47;;;;;;;;;;;13.50;91.80;;;;;;5084624;28;20355;-71
2021/07/04 01:06:13;;;;;;;;;;;13.50;92.30;;;;;;5076898;28;20448;-69
2021/07/04 01:08:38;;;;;;;;;;;13.50;92.10;;;;;;5085923;28;19928;-72
2021/07/04 01:11:04;;;;;;;;;;;13.50;92.30;;;;;;5087325;28;20011;-70
2021/07/04 01:13:30;;;;;;;;;;;13.50;92.50;;;;;;5085771;28;19919;-69
2021/07/04 01:15:56;;;;;;;;;;;13.40;92.30;;;;;;5077490;28;19913;-69
2021/07/04 01:18:21;;;;;;;;;;;13.40;92.10;;;;;;5082262;28;20035;-69
2021/07/04 01:20:47;;;;;;;;;;;13.40;92.40;;;;;;5085853;28;20106;-69
2021/07/04 01:23:14;;;;;;;;;;;13.30;92.50;;;;;;5082084;28;19920;-70
2021/07/04 01:25:41;;;;;;;;;;;13.40;92.70;;;;;;5083428;28;19916;-68
2021/07/04 01:28:07;;;;;;;;;;;13.40;92.80;;;;;;5084640;28;19912;-69
2021/07/04 01:30:32;;;;;;;;;;;13.40;93.00;;;;;;5073734;28;19920;-69
2021/07/04 01:32:58;;;;;;;;;;;13.40;92.80;;;;;;5075826;28;20324;-71
2021/07/04 01:35:24;;;;;;;;;;;13.40;92.80;;;;;;5075582;28;19920;-69
2021/07/04 01:37:49;;;;;;;;;;;13.40;92.60;;;;;;5085183;28;20367;-69
2021/07/04 01:40:15;;;;;;;;;;;13.30;92.60;;;;;;5081762;28;19912;-69
2021/07/04 01:42:42;;;;;;;;;;;13.30;92.70;;;;;;5084637;28;19986;-68
2021/07/04 01:45:09;;;;;;;;;;;13.30;92.80;;;;;;5085860;28;19959;-69
2021/07/04 01:47:36;;;;;;;;;;;13.30;92.80;;;;;;5085054;28;19944;-69
2021/07/04 01:50:03;;;;;;;;;;;13.20;93.00;;;;;;5084819;28;20010;-69
2021/07/04 01:52:28;;;;;;;;;;;13.30;92.80;;;;;;5084234;28;19943;-69
2021/07/04 01:54:53;;;;;;;;;;;13.20;93.20;;;;;;5072576;28;19913;-69
2021/07/04 01:57:19;;;;;;;;;;;13.30;93.30;;;;;;5078347;28;19972;-70
2021/07/04 01:59:45;;;;;;;;;;;13.30;93.50;;;;;;5086145;28;19908;-68
2021/07/04 02:02:11;;;;;;;;;;;13.30;93.10;;;;;;5082723;28;19920;-69
2021/07/04 02:04:38;;;;;;;;;;;13.20;92.90;;;;;;5079032;28;19939;-68
2021/07/04 02:07:04;;;;;;;;;;;13.20;93.10;;;;;;5083391;28;20557;-70
2021/07/04 02:09:30;;;;;;;;;;;13.20;93.10;;;;;;5084387;28;20343;-72
2021/07/04 02:11:55;;;;;;;;;;;13.20;93.40;;;;;;5065786;28;20007;-69
2021/07/04 02:14:21;;;;;;;;;;;13.20;93.20;;;;;;5082535;28;20245;-69
2021/07/04 02:16:46;;;;;;;;;;;13.20;93.40;;;;;;5067217;28;20098;-71
2021/07/04 02:19:12;;;;;;;;;;;13.20;93.40;;;;;;5084067;28;19942;-69
2021/07/04 02:21:37;;;;;;;;;;;13.10;93.20;;;;;;5072087;28;19927;-70
2021/07/04 02:24:03;;;;;;;;;;;13.10;93.10;;;;;;5080208;28;19916;-71
2021/07/04 02:26:28;;;;;;;;;;;13.20;93.50;;;;;;5081298;28;20003;-69
2021/07/04 02:28:54;;;;;;;;;;;13.30;93.60;;;;;;5081154;28;20046;-70
2021/07/04 02:31:19;;;;;;;;;;;13.30;93.30;;;;;;5081914;28;19999;-71
2021/07/04 02:33:45;;;;;;;;;;;13.30;93.40;;;;;;5080705;28;19909;-68
2021/07/04 02:36:10;;;;;;;;;;;13.30;93.30;;;;;;5064812;28;19970;-69
2021/07/04 02:38:36;;;;;;;;;;;13.30;93.30;;;;;;5075445;28;19912;-70
2021/07/04 02:41:01;;;;;;;;;;;13.30;93.10;;;;;;5072201;28;21848;-69
2021/07/04 02:43:27;;;;;;;;;;;13.30;93.00;;;;;;5075040;28;20006;-70
2021/07/04 02:45:53;;;;;;;;;;;13.30;92.90;;;;;;5065050;28;19948;-69
2021/07/04 02:48:18;;;;;;;;;;;13.30;92.90;;;;;;5073660;28;19926;-71
2021/07/04 02:50:45;;;;;;;;;;;13.30;92.80;;;;;;5084918;28;19939;-70
2021/07/04 02:53:10;;;;;;;;;;;13.30;92.50;;;;;;5070533;28;19939;-69
2021/07/04 02:55:36;;;;;;;;;;;13.30;92.50;;;;;;5076442;28;19962;-69
2021/07/04 02:58:02;;;;;;;;;;;13.30;92.70;;;;;;5083035;28;19923;-69
2021/07/04 03:00:28;;;;;;;;;;;13.40;93.00;;;;;;5084953;28;19941;-70
2021/07/04 03:02:54;;;;;;;;;;;13.50;93.30;;;;;;5082727;28;20431;-71
2021/07/04 03:05:19;;;;;;;;;;;13.50;93.30;;;;;;5065949;28;19916;-70
2021/07/04 03:07:45;;;;;;;;;;;13.50;93.10;;;;;;5083747;28;19963;-70
2021/07/04 03:10:12;;;;;;;;;;;13.60;93.00;;;;;;5054120;28;19951;-69
2021/07/04 03:12:38;;;;;;;;;;;13.60;92.80;;;;;;5066155;28;19920;-69
2021/07/04 03:15:04;;;;;;;;;;;13.70;93.00;;;;;;5080455;28;20295;-69
2021/07/04 03:17:30;;;;;;;;;;;13.60;93.00;;;;;;5076678;28;20391;-70
2021/07/04 03:19:56;;;;;;;;;;;13.70;92.70;;;;;;5084288;28;20003;-69
2021/07/04 03:22:21;;;;;;;;;;;13.70;92.70;;;;;;5082659;28;19920;-69
2021/07/04 03:24:46;;;;;;;;;;;13.80;92.80;;;;;;5084497;28;19908;-69
2021/07/04 03:27:12;;;;;;;;;;;13.80;92.60;;;;;;5082388;28;20245;-70
2021/07/04 03:29:38;;;;;;;;;;;13.90;92.50;;;;;;5072122;28;19916;-69
2021/07/04 03:32:04;;;;;;;;;;;13.80;92.50;;;;;;5073853;28;19925;-71
2021/07/04 03:34:30;;;;;;;;;;;14.00;92.60;;;;;;5084710;28;19912;-71
2021/07/04 03:36:55;;;;;;;;;;;14.00;92.50;;;;;;5082869;28;19916;-70
2021/07/04 03:39:21;;;;;;;;;;;14.00;92.40;;;;;;5082927;28;20189;-70
2021/07/04 03:41:46;;;;;;;;;;;14.00;92.40;;;;;;5082838;28;20332;-69
2021/07/04 03:44:12;;;;;;;;;;;14.00;92.40;;;;;;5083957;28;19919;-69
2021/07/04 03:46:37;;;;;;;;;;;14.10;92.30;;;;;;5083557;28;20451;-69
2021/07/04 03:49:03;;;;;;;;;;;14.20;92.30;;;;;;5076725;28;19923;-69
2021/07/04 03:51:28;;;;;;;;;;;14.20;92.10;;;;;;5080476;28;19946;-69
2021/07/04 03:53:54;;;;;;;;;;;14.30;92.00;;;;;;5070231;28;19924;-70
2021/07/04 03:56:20;;;;;;;;;;;14.50;91.90;;;;;;5073040;28;19916;-68
2021/07/04 03:58:46;;;;;;;;;;;14.60;91.40;;;;;;5084020;28;19973;-70
2021/07/04 04:01:18;;;;;;;;;;;14.70;90.80;;;;;;5082490;28;19920;-69
2021/07/04 04:03:44;;;;;;;;;;;14.90;90.30;;;;;;5082923;28;20232;-70
2021/07/04 04:06:09;;;;;;;;;;;15.00;89.80;;;;;;5082675;28;20010;-71
2021/07/04 04:08:35;;;;;;;;;;;15.10;89.40;;;;;;5080839;28;19943;-69
2021/07/04 04:11:00;;;;;;;;;;;15.20;88.90;;;;;;5063587;28;20007;-69
2021/07/04 04:13:26;;;;;;;;;;;15.30;88.90;;;;;;5082402;28;20360;-70
2021/07/04 04:15:51;;;;;;;;;;;15.40;88.70;;;;;;5082814;28;20383;-68
2021/07/04 04:18:18;;;;;;;;;;;15.50;88.60;;;;;;5083157;28;19912;-70
2021/07/04 04:20:44;;;;;;;;;;;15.60;88.20;;;;;;5082350;28;19948;-69
2021/07/04 04:23:10;;;;;;;;;;;15.70;87.80;;;;;;5081922;28;19944;-69
2021/07/04 04:25:35;;;;;;;;;;;15.80;87.40;;;;;;5082594;28;19916;-70
2021/07/04 04:28:04;;;;;;;;;;;15.90;87.70;;;;;;5077632;28;19913;-69
2021/07/04 04:30:31;;;;;;;;;;;16.00;86.90;;;;;;5070099;28;19936;-68
2021/07/04 04:32:56;;;;;;;;;;;16.10;86.80;;;;;;5046295;28;19999;-69
2021/07/04 04:35:22;;;;;;;;;;;16.30;86.20;;;;;;5080120;28;19999;-67
2021/07/04 04:37:47;;;;;;;;;;;16.40;85.80;;;;;;5082541;28;19934;-69
2021/07/04 04:40:13;;;;;;;;;;;16.50;85.60;;;;;;5075049;28;19927;-67
2021/07/04 04:42:38;;;;;;;;;;;16.70;85.30;;;;;;5080506;28;20093;-71
2021/07/04 04:45:04;;;;;;;;;;;16.80;84.90;;;;;;5082321;28;20334;-69
2021/07/04 04:47:29;;;;;;;;;;;16.80;84.70;;;;;;5082280;28;19913;-69
2021/07/04 04:49:55;;;;;;;;;;;16.90;83.50;;;;;;5083293;28;19916;-69
2021/07/04 04:52:20;;;;;;;;;;;17.00;83.10;;;;;;5081892;28;19919;-70
2021/07/04 04:54:46;;;;;;;;;;;17.10;83.90;;;;;;5082772;28;20395;-68
2021/07/04 04:57:11;;;;;;;;;;;17.10;82.50;;;;;;5061989;28;19916;-68
2021/07/04 04:59:38;;;;;;;;;;;17.20;82.80;;;;;;5083080;28;20369;-69
2021/07/04 05:02:04;;;;;;;;;;;17.30;82.30;;;;;;5082131;28;20058;-69
2021/07/04 05:04:29;;;;;;;;;;;17.30;81.30;;;;;;5073448;28;20042;-70
2021/07/04 05:06:55;;;;;;;;;;;17.50;80.30;;;;;;5073422;28;19912;-71
2021/07/04 05:09:21;;;;;;;;;;;17.50;81.50;;;;;;5086789;28;19935;-69
2021/07/04 05:11:48;;;;;;;;;;;17.60;81.70;;;;;;5084915;28;20000;-68
2021/07/04 05:14:14;;;;;;;;;;;17.70;80.50;;;;;;5085894;28;20023;-71
2021/07/04 05:16:39;;;;;;;;;;;17.80;80.50;;;;;;5086019;28;20062;-69
2021/07/04 05:19:05;;;;;;;;;;;17.90;80.50;;;;;;5086822;28;20344;-70
2021/07/04 05:21:32;;;;;;;;;;;18.00;78.90;;;;;;5084852;28;20290;-71
2021/07/04 05:23:57;;;;;;;;;;;18.00;78.30;;;;;;5067306;28;19912;-69
2021/07/04 05:26:23;;;;;;;;;;;18.10;78.90;;;;;;5085179;28;20511;-69
2021/07/04 05:28:48;;;;;;;;;;;18.20;78.70;;;;;;5081909;28;19931;-71
2021/07/04 05:31:14;;;;;;;;;;;18.30;78.00;;;;;;5082323;28;20141;-70
2021/07/04 05:33:39;;;;;;;;;;;18.40;77.80;;;;;;5082848;28;19919;-69
2021/07/04 05:36:05;;;;;;;;;;;18.40;77.50;;;;;;5067189;28;20407;-73
2021/07/04 05:38:33;;;;;;;;;;;18.50;78.40;;;;;;5085442;28;20072;-69
2021/07/04 05:40:58;;;;;;;;;;;18.40;77.10;;;;;;5078742;28;20560;-68
2021/07/04 05:43:24;;;;;;;;;;;18.50;77.30;;;;;;5081611;28;19930;-69
2021/07/04 05:45:50;;;;;;;;;;;18.50;76.70;;;;;;5085907;28;19916;-69
2021/07/04 05:48:15;;;;;;;;;;;18.60;76.00;;;;;;5076629;28;20220;-72
2021/07/04 05:50:41;;;;;;;;;;;18.70;76.10;;;;;;5073368;28;20133;-69
2021/07/04 05:53:06;;;;;;;;;;;18.70;74.90;;;;;;5083778;28;19912;-69
2021/07/04 05:55:32;;;;;;;;;;;18.80;75.40;;;;;;5082075;28;20024;-70
2021/07/04 05:57:57;;;;;;;;;;;18.90;75.10;;;;;;5071629;28;19989;-71
2021/07/04 06:00:23;;;;;;;;;;;19.00;75.50;;;;;;5065717;28;20064;-70
2021/07/04 06:02:49;;;;;;;;;;;19.10;75.40;;;;;;5084519;28;19965;-73
2021/07/04 06:05:17;;;;;;;;;;;19.30;75.60;;;;;;5069718;28;19913;-69
2021/07/04 06:07:42;;;;;;;;;;;19.30;73.40;;;;;;5076465;28;19973;-68
2021/07/04 06:10:08;;;;;;;;;;;19.50;75.50;;;;;;5084967;28;19912;-70
2021/07/04 06:12:33;;;;;;;;;;;19.50;72.90;;;;;;5084646;28;19998;-71
2021/07/04 06:14:59;;;;;;;;;;;19.50;74.10;;;;;;5081107;28;19944;-69
2021/07/04 06:17:24;;;;;;;;;;;19.50;74.00;;;;;;5069040;28;20391;-69
2021/07/04 06:19:50;;;;;;;;;;;19.50;74.90;;;;;;5065309;28;19984;-71
2021/07/04 06:22:15;;;;;;;;;;;19.50;74.80;;;;;;5077693;28;20357;-69
2021/07/04 06:24:41;;;;;;;;;;;19.70;73.90;;;;;;5081524;28;19974;-69
2021/07/04 06:27:06;;;;;;;;;;;19.70;74.10;;;;;;5068431;28;19978;-70
2021/07/04 06:29:32;;;;;;;;;;;19.90;74.20;;;;;;5072142;28;20198;-70
2021/07/04 06:31:57;;;;;;;;;;;19.90;74.50;;;;;;5068312;28;20015;-69
2021/07/04 06:34:23;;;;;;;;;;;20.00;75.20;;;;;;5076098;28;19916;-70
2021/07/04 06:36:48;;;;;;;;;;;20.10;75.50;;;;;;5071635;28;20442;-70
2021/07/04 06:39:14;;;;;;;;;;;20.40;75.70;;;;;;5076063;28;19965;-69
2021/07/04 06:41:39;;;;;;;;;;;20.50;73.30;;;;;;5076113;28;19951;-69
2021/07/04 06:44:05;;;;;;;;;;;20.40;73.30;;;;;;5076451;28;20029;-68
2021/07/04 06:46:31;;;;;;;;;;;20.20;73.00;;;;;;5057522;28;20304;-69
2021/07/04 06:48:57;;;;;;;;;;;20.40;74.80;;;;;;5075532;28;19916;-69
2021/07/04 06:51:22;;;;;;;;;;;20.40;74.00;;;;;;5081191;28;19955;-69
2021/07/04 06:53:48;;;;;;;;;;;20.60;75.70;;;;;;5076088;28;19928;-71
2021/07/04 06:56:13;;;;;;;;;;;20.70;72.30;;;;;;5082520;28;20089;-67
2021/07/04 06:58:39;;;;;;;;;;;20.70;71.30;;;;;;5075770;28;19931;-69
2021/07/04 07:01:04;;;;;;;;;;;20.80;72.10;;;;;;5064234;28;19913;-70
2021/07/04 07:03:30;;;;;;;;;;;21.00;72.60;;;;;;5081151;28;20139;-70
2021/07/04 07:05:55;;;;;;;;;;;21.50;71.00;;;;;;5082662;28;20221;-69
2021/07/04 07:08:21;;;;;;;;;;;21.60;69.60;;;;;;5063960;28;20321;-71
2021/07/04 07:10:46;;;;;;;;;;;21.70;70.00;;;;;;5084088;28;19927;-70
2021/07/04 07:13:12;;;;;;;;;;;21.50;68.90;;;;;;5083440;28;20035;-69
2021/07/04 07:15:37;;;;;;;;;;;21.60;68.40;;;;;;5082708;28;20245;-70
2021/07/04 07:18:03;;;;;;;;;;;21.70;69.30;;;;;;5082932;28;19920;-68
2021/07/04 07:20:29;;;;;;;;;;;21.90;68.70;;;;;;5066182;28;20305;-69
2021/07/04 07:22:54;;;;;;;;;;;22.00;71.20;;;;;;5077408;28;20003;-71
2021/07/04 07:25:20;;;;;;;;;;;22.00;70.40;;;;;;5083813;28;19916;-69
2021/07/04 07:27:45;;;;;;;;;;;22.50;71.60;;;;;;5081542;28;20015;-70
2021/07/04 07:30:12;;;;;;;;;;;22.70;69.40;;;;;;5079289;28;19920;-70
2021/07/04 07:32:38;;;;;;;;;;;22.90;68.70;;;;;;5082992;28;20500;-69
2021/07/04 07:35:04;;;;;;;;;;;23.20;67.80;;;;;;5080409;28;20360;-71
2021/07/04 07:37:30;;;;;;;;;;;23.40;67.90;;;;;;5082619;28;20421;-69
2021/07/04 07:39:55;;;;;;;;;;;23.40;67.70;;;;;;5070481;28;20090;-71
2021/07/04 07:42:21;;;;;;;;;;;23.50;66.60;;;;;;5066156;28;20018;-70
2021/07/04 07:44:46;;;;;;;;;;;23.40;66.20;;;;;;5062700;28;20455;-69
2021/07/04 07:47:13;;;;;;;;;;;23.30;65.90;;;;;;5064856;28;19985;-69
2021/07/04 07:49:38;;;;;;;;;;;23.50;64.80;;;;;;5083143;28;20249;-70
2021/07/04 07:52:04;;;;;;;;;;;23.60;63.90;;;;;;5064022;28;19912;-72
2021/07/04 07:54:30;;;;;;;;;;;23.70;63.80;;;;;;5065612;28;19909;-70
2021/07/04 07:56:55;;;;;;;;;;;23.90;66.90;;;;;;5063355;28;20064;-70
2021/07/04 07:59:21;;;;;;;;;;;24.00;64.10;;;;;;5080313;28;20373;-71
2021/07/04 08:01:47;;;;;;;;;;;23.60;59.80;;;;;;5083330;28;20306;-72
2021/07/04 08:04:12;;;;;;;;;;;23.70;62.50;;;;;;5077870;28;20425;-70
2021/07/04 08:06:38;;;;;;;;;;;23.90;60.10;;;;;;5077098;28;19959;-70
2021/07/04 08:09:04;;;;;;;;;;;23.90;60.60;;;;;;5081420;28;19928;-70
2021/07/04 08:11:29;;;;;;;;;;;24.00;63.30;;;;;;5083398;28;19908;-73
2021/07/04 08:13:55;;;;;;;;;;;24.10;60.60;;;;;;5082059;28;19950;-70
2021/07/04 08:16:20;;;;;;;;;;;23.80;62.00;;;;;;5082798;28;19927;-71
2021/07/04 08:18:46;;;;;;;;;;;23.80;61.70;;;;;;5076197;28;20422;-70
2021/07/04 08:21:12;;;;;;;;;;;24.00;58.20;;;;;;5083389;28;19956;-69
2021/07/04 08:23:37;;;;;;;;;;;24.30;61.30;;;;;;5074973;28;20396;-70
2021/07/04 08:26:03;;;;;;;;;;;23.80;63.20;;;;;;5063365;28;20349;-69
2021/07/04 08:28:28;;;;;;;;;;;23.80;61.80;;;;;;5072319;28;19915;-71
2021/07/04 08:30:54;;;;;;;;;;;23.60;61.30;;;;;;5069765;28;19927;-70
2021/07/04 08:33:19;;;;;;;;;;;23.60;61.10;;;;;;5074018;28;20015;-69
2021/07/04 08:35:45;;;;;;;;;;;23.70;61.80;;;;;;5083454;28;20129;-71
2021/07/04 08:38:10;;;;;;;;;;;23.90;61.70;;;;;;5073144;28;19913;-69
2021/07/04 08:40:36;;;;;;;;;;;24.00;60.00;;;;;;5074489;28;20439;-70
2021/07/04 08:43:02;;;;;;;;;;;24.10;61.10;;;;;;5082834;28;20042;-71
2021/07/04 08:45:27;;;;;;;;;;;24.30;60.40;;;;;;5086166;28;20003;-70
2021/07/04 08:47:53;;;;;;;;;;;24.00;59.10;;;;;;5086614;28;20479;-69
2021/07/04 08:50:19;;;;;;;;;;;24.10;61.10;;;;;;5085329;28;19932;-69
2021/07/04 08:52:44;;;;;;;;;;;24.20;60.60;;;;;;5086075;28;19932;-70
2021/07/04 08:55:10;;;;;;;;;;;24.20;60.30;;;;;;5074354;28;19912;-70
2021/07/04 08:57:36;;;;;;;;;;;24.10;59.60;;;;;;5072971;28;20018;-69
2021/07/04 09:00:02;;;;;;;;;;;24.10;60.10;;;;;;5079951;28;19961;-70
2021/07/04 09:02:29;;;;;;;;;;;24.00;61.40;;;;;;5070960;28;19913;-70
2021/07/04 09:05:00;;;;;;;;;;;24.10;62.30;;;;;;5085630;28;19995;-70
2021/07/04 09:07:26;;;;;;;;;;;23.60;62.10;;;;;;5067186;28;19912;-69
2021/07/04 09:10:10;;;;;;;;;;;23.80;61.60;;;;;;5076913;28;19920;-69
2021/07/04 09:12:37;;;;;;;;;;;24.00;62.80;;;;;;5085900;28;20383;-68
2021/07/04 09:15:07;;;;;;;;;;;23.90;60.90;;;;;;5081823;28;19924;-69
2021/07/04 09:17:36;;;;;;;;;;;23.90;63.30;;;;;;5073015;28;19934;-71
2021/07/04 09:20:04;;;;;;;;;;;23.80;63.30;;;;;;5079582;28;20178;-71
2021/07/04 09:22:38;;;;;;;;;;;23.80;64.70;;;;;;5071458;28;19928;-70
2021/07/04 09:25:06;;;;;;;;;;;23.80;63.30;;;;;;5067161;28;20269;-68
2021/07/04 09:27:32;;;;;;;;;;;23.70;63.70;;;;;;5079994;28;19936;-70
2021/07/04 09:29:57;;;;;;;;;;;23.90;64.80;;;;;;5081814;28;19928;-69
2021/07/04 09:32:25;;;;;;;;;;;24.10;63.70;;;;;;5083948;28;19916;-70
2021/07/04 09:35:06;;;;;;;;;;;24.40;64.10;;;;;;5085395;28;20114;-69
2021/07/04 09:37:31;;;;;;;;;;;24.20;62.40;;;;;;5085234;28;19918;-69
2021/07/04 09:40:12;;;;;;;;;;;24.30;61.90;;;;;;5067563;28;19928;-72
2021/07/04 09:42:56;;;;;;;;;;;24.40;63.10;;;;;;5074312;28;19913;-70
2021/07/04 09:45:23;;;;;;;;;;;24.80;62.40;;;;;;5077610;28;19992;-71
2021/07/04 09:47:54;;;;;;;;;;;24.60;59.30;;;;;;5083804;28;20040;-69
2021/07/04 09:50:20;;;;;;;;;;;24.80;60.20;;;;;;5072482;28;19916;-70
2021/07/04 09:52:59;;;;;;;;;;;25.30;58.40;;;;;;5074909;28;19935;-69
2021/07/04 09:55:25;;;;;;;;;;;25.10;58.50;;;;;;5065210;28;20360;-70
2021/07/04 09:57:52;;;;;;;;;;;25.60;58.20;;;;;;5080850;28;19912;-70
2021/07/04 10:00:18;;;;;;;;;;;25.70;57.40;;;;;;5075304;28;20241;-68
2021/07/04 10:03:04;;;;;;;;;;;26.50;57.80;;;;;;5055018;28;20321;-69
2021/07/04 10:05:29;;;;;;;;;;;26.50;57.20;;;;;;5085228;28;19931;-70
2021/07/04 10:07:55;;;;;;;;;;;26.50;59.20;;;;;;5085279;28;20329;-71
2021/07/04 10:10:21;;;;;;;;;;;26.30;55.10;;;;;;5076649;28;19931;-72
2021/07/04 10:12:46;;;;;;;;;;;26.10;56.80;;;;;;5079482;28;19966;-70
2021/07/04 10:15:12;;;;;;;;;;;25.90;57.60;;;;;;5084395;28;19916;-71
2021/07/04 10:17:38;;;;;;;;;;;26.20;60.40;;;;;;5081867;28;20062;-71
2021/07/04 10:20:04;;;;;;;;;;;26.00;56.10;;;;;;5074906;28;19912;-71
2021/07/04 10:22:33;;;;;;;;;;;26.30;54.80;;;;;;5080203;28;19923;-71
2021/07/04 10:25:00;;;;;;;;;;;26.80;54.50;;;;;;5067813;28;19955;-70
2021/07/04 10:27:26;;;;;;;;;;;27.00;53.30;;;;;;5083693;28;19995;-70
2021/07/04 10:29:52;;;;;;;;;;;27.30;54.30;;;;;;5077657;28;20018;-70
2021/07/04 10:32:17;;;;;;;;;;;27.60;54.50;;;;;;5075817;28;20446;-70
2021/07/04 10:34:47;;;;;;;;;;;27.50;52.60;;;;;;5084345;28;20296;-70
2021/07/04 10:37:14;;;;;;;;;;;27.40;55.10;;;;;;5073839;28;20007;-72
2021/07/04 10:39:39;;;;;;;;;;;27.00;55.40;;;;;;5080525;28;19997;-70
2021/07/04 10:42:09;;;;;;;;;;;27.00;56.40;;;;;;5071898;28;20359;-70
2021/07/04 10:44:40;;;;;;;;;;;27.30;55.50;;;;;;5066236;28;19909;-70
2021/07/04 10:47:12;;;;;;;;;;;27.20;53.90;;;;;;5072024;28;20015;-72
2021/07/04 10:49:56;;;;;;;;;;;27.60;53.30;;;;;;5083300;28;20085;-70
2021/07/04 10:52:30;;;;;;;;;;;28.20;53.40;;;;;;5082229;28;20006;-72
2021/07/04 10:54:56;;;;;;;;;;;28.50;52.50;;;;;;5084501;28;19919;-71
2021/07/04 10:57:25;;;;;;;;;;;28.00;50.00;;;;;;5079767;28;20233;-70
2021/07/04 11:02:35;;;;;;;;;;;27.50;53.30;;;;;;5083734;28;20446;-70
2021/07/04 11:05:00;;;;;;;;;;;27.30;53.20;;;;;;5078604;28;20075;-71
2021/07/04 11:07:26;;;;;;;;;;;26.70;56.20;;;;;;5083573;28;19986;-69
2021/07/04 11:09:51;;;;;;;;;;;26.60;55.30;;;;;;5079641;28;20388;-72
2021/07/04 11:12:24;;;;;;;;;;;26.50;53.90;;;;;;5072746;28;19916;-73
2021/07/04 11:15:08;;;;;;;;;;;26.30;55.10;;;;;;5069636;28;20011;-71
2021/07/04 11:18:03;;;;;;;;;;;26.30;56.80;;;;;;5079740;28;19977;-70
2021/07/04 11:20:51;;;;;;;;;;;26.00;56.00;;;;;;5059377;28;19992;-71
2021/07/04 11:23:21;;;;;;;;;;;26.00;56.40;;;;;;5061286;28;19920;-70
2021/07/04 11:25:53;;;;;;;;;;;26.50;56.20;;;;;;5061750;28;20229;-71
2021/07/04 11:28:19;;;;;;;;;;;26.80;55.30;;;;;;5081600;28;19939;-70
2021/07/04 11:30:45;;;;;;;;;;;27.20;55.10;;;;;;5077438;28;20016;-70
2021/07/04 11:33:28;;;;;;;;;;;27.20;54.30;;;;;;5078508;28;19916;-70
2021/07/04 11:36:14;;;;;;;;;;;27.20;54.30;;;;;;5073918;28;19918;-69
2021/07/04 11:38:43;;;;;;;;;;;26.70;53.50;;;;;;5065058;28;19915;-71
2021/07/04 11:41:12;;;;;;;;;;;26.90;53.40;;;;;;5058246;28;19952;-71
2021/07/04 11:43:39;;;;;;;;;;;27.00;52.60;;;;;;5079695;28;19977;-72
2021/07/04 11:46:07;;;;;;;;;;;27.40;52.70;;;;;;5072041;28;19920;-70
2021/07/04 11:48:49;;;;;;;;;;;28.10;51.70;;;;;;5077884;28;19998;-70
2021/07/04 11:51:28;;;;;;;;;;;27.90;52.30;;;;;;5073529;28;20336;-71
2021/07/04 11:53:56;;;;;;;;;;;28.00;50.80;;;;;;5068082;28;20047;-70
2021/07/04 11:56:22;;;;;;;;;;;27.80;50.80;;;;;;5068380;28;20022;-71
2021/07/04 11:58:48;;;;;;;;;;;28.20;50.30;;;;;;5078680;28;19996;-72
2021/07/04 12:01:14;;;;;;;;;;;28.60;50.30;;;;;;5071942;28;19912;-70
2021/07/04 12:03:40;;;;;;;;;;;28.20;49.20;;;;;;5062452;28;20015;-70
2021/07/04 12:06:06;;;;;;;;;;;28.30;51.40;;;;;;5080350;28;20156;-70
2021/07/04 12:08:52;;;;;;;;;;;28.00;49.40;;;;;;5076264;28;20073;-70
2021/07/04 12:11:17;;;;;;;;;;;27.70;50.00;;;;;;5059688;28;19920;-71
2021/07/04 12:13:45;;;;;;;;;;;27.70;50.90;;;;;;5071439;28;20411;-71
2021/07/04 12:16:11;;;;;;;;;;;27.80;52.50;;;;;;5080658;28;20011;-72
2021/07/04 12:18:37;;;;;;;;;;;27.90;50.90;;;;;;5078320;28;20000;-70
2021/07/04 12:21:04;;;;;;;;;;;27.70;49.80;;;;;;5079517;28;19942;-71
2021/07/04 12:23:30;;;;;;;;;;;27.70;50.40;;;;;;5078813;28;19913;-71
2021/07/04 12:25:55;;;;;;;;;;;28.40;50.90;;;;;;5080782;28;19919;-69
2021/07/04 12:28:23;;;;;;;;;;;28.50;48.40;;;;;;5077676;28;19923;-69
2021/07/04 12:30:50;;;;;;;;;;;27.90;49.60;;;;;;5083544;28;19920;-70
2021/07/04 12:33:16;;;;;;;;;;;28.00;49.70;;;;;;5081414;28;20412;-69
2021/07/04 12:35:45;;;;;;;;;;;27.70;49.20;;;;;;5083984;28;20088;-69
2021/07/04 12:38:18;;;;;;;;;;;27.80;51.50;;;;;;5085243;28;20312;-70
2021/07/04 12:40:57;;;;;;;;;;;28.30;50.50;;;;;;5085363;28;19912;-71
2021/07/04 12:43:31;;;;;;;;;;;28.40;50.90;;;;;;5082672;28;20403;-71
2021/07/04 12:45:57;;;;;;;;;;;28.60;47.80;;;;;;5075008;28;19924;-69
2021/07/04 12:48:23;;;;;;;;;;;28.70;49.20;;;;;;5081874;28;20562;-70
2021/07/04 12:50:52;;;;;;;;;;;29.60;47.20;;;;;;5077299;28;20002;-70
2021/07/04 12:53:18;;;;;;;;;;;29.50;45.70;;;;;;5065475;28;19912;-70
2021/07/04 12:55:51;;;;;;;;;;;29.80;45.00;;;;;;5085697;28;20029;-71
2021/07/04 12:58:32;;;;;;;;;;;29.50;45.00;;;;;;5086582;28;20439;-69
2021/07/04 13:01:12;;;;;;;;;;;29.30;44.90;;;;;;5081506;28;20217;-69
2021/07/04 13:03:46;;;;;;;;;;;28.80;47.30;;;;;;5084420;28;20327;-72
2021/07/04 13:06:31;;;;;;;;;;;28.20;49.00;;;;;;5077753;28;20396;-70
2021/07/04 13:08:57;;;;;;;;;;;28.40;46.80;;;;;;5080600;28;19912;-71
2021/07/04 13:11:23;;;;;;;;;;;28.30;47.90;;;;;;5080938;28;19942;-70
2021/07/04 13:13:54;;;;;;;;;;;28.50;49.10;;;;;;5081149;28;19920;-70
2021/07/04 13:16:19;;;;;;;;;;;27.90;47.70;;;;;;5081806;28;20057;-69
2021/07/04 13:18:45;;;;;;;;;;;28.30;46.00;;;;;;5083770;28;20010;-69
2021/07/04 13:21:25;;;;;;;;;;;28.40;47.10;;;;;;5079323;28;19967;-70
2021/07/04 13:24:11;;;;;;;;;;;29.10;46.00;;;;;;5080421;28;20010;-68
2021/07/04 13:26:36;;;;;;;;;;;29.10;45.00;;;;;;5064225;28;20233;-70
2021/07/04 13:29:21;;;;;;;;;;;28.80;44.80;;;;;;5082093;28;19924;-71
2021/07/04 13:32:05;;;;;;;;;;;29.00;42.90;;;;;;5081485;28;20299;-69
2021/07/04 13:34:30;;;;;;;;;;;29.00;47.20;;;;;;5080513;28;20002;-70
2021/07/04 13:36:56;;;;;;;;;;;29.10;46.30;;;;;;5080220;28;20027;-71
2021/07/04 13:39:22;;;;;;;;;;;29.20;48.50;;;;;;5083684;28;19908;-70
2021/07/04 13:41:47;;;;;;;;;;;29.40;43.80;;;;;;5076828;28;20408;-69
2021/07/04 13:44:13;;;;;;;;;;;29.20;46.20;;;;;;5079545;28;19928;-70
2021/07/04 13:46:39;;;;;;;;;;;30.00;45.40;;;;;;5082957;28;19965;-71
2021/07/04 13:49:04;;;;;;;;;;;29.90;44.40;;;;;;5078538;28;19999;-70
2021/07/04 13:51:30;;;;;;;;;;;30.00;44.30;;;;;;5073288;28;19919;-69
2021/07/04 13:53:56;;;;;;;;;;;30.00;41.60;;;;;;5077204;28;20002;-71
2021/07/04 13:56:21;;;;;;;;;;;31.20;39.30;;;;;;5076088;28;20483;-69
2021/07/04 13:58:47;;;;;;;;;;;32.10;35.60;;;;;;5082054;28;19912;-70
2021/07/04 14:01:12;;;;;;;;;;;33.30;37.70;;;;;;5074754;28;20000;-70
2021/07/04 14:03:38;;;;;;;;;;;34.20;35.30;;;;;;5077499;28;19913;-70
2021/07/04 14:06:03;;;;;;;;;;;34.30;35.50;;;;;;5073695;28;19924;-70
2021/07/04 14:08:28;;;;;;;;;;;34.20;33.00;;;;;;5081321;28;20430;-71
2021/07/04 14:10:54;;;;;;;;;;;34.10;34.80;;;;;;5082780;28;19923;-69
2021/07/04 14:13:21;;;;;;;;;;;32.90;33.70;;;;;;5080138;28;19912;-69
2021/07/04 14:15:47;;;;;;;;;;;32.50;33.60;;;;;;5078352;28;19972;-69
2021/07/04 14:18:13;;;;;;;;;;;33.10;35.30;;;;;;5075897;28;20443;-70